Timeline UpdatesTrip UpdatesNews PostsPvt PostsTravel TipsAdmin PostsConv PostsFollowed PostsChat RequestsBlog PostsPNR Posts

Disclaimer
Search
 
 
Fri Sep 19, 2014 15:19:53 ISTHomeTrainsΣChainsAtlasPNRForumGalleryNewsFAQTripsMembersLoginFeedback
No Recent News for this Train
Other Trains in the News **new
Latest...
⇐ Return Journey: Train# 51823

51824/Farrukhabad Allahabad Passenger (UnReserved)

Time-Table HAS CHANGED.
Sep 03 (2:01PM)
Change Departure Station:
Change Arrival Station:
Post a Train Travel TipPost a Train Travel Tip **new
Post a Comment/Question/Picture/VideoPost a Comment/Question/Picture/Video
Pantry/Catering
✕ NO Pantry Car
✕ NO Catering
RSA - Rake Sharing
Rake/Coach Composition
Loco
News    PNR    Forum    Time-Table    Availability    Fare Chart    Map    Arr/Dep History    Trips    Gallery    ΣChains    X/O    Timeline    
Travel Time: 8h 31m    49 halts    Distance: 297 km    Avg Speed: 34 km/hr
Type: Passenger
Zone: NCR/North Central
Departs @ 10:10
Platform# ???
SMTWTFS
Farrukhabad Junction/FBD 
Arrives @ 18:41
Platform# ???
SMTWTFS
Bharwari/BRE 

49 halts. 49 intermediate Stations between Farrukhabad Junction and Bharwari

Show ALL intermediate Stations  Show Old Time-Table

#CodeStation NameX/OArrivesAvgDepartsAvgHaltPFDay#KmSpeedElevZoneAddress
1FBDFarrukhabad Junction (5)»  -10:10---10.020151mNERFarrukhabad, Uttar Pradesh
2FGRFatehgarh  10:26-10:27-1m--15.241152mNERFatehgarh, Uttar Pradesh
3YAGYaqutganj  10:34-10:35-1m--110.127150mNERK. V. RRC, Uttar Pradesh
4KLJKamalGanjX  10:44-10:45-1m--114.152145mNERKamalganj, Uttar Pradesh
5SGRPSinghirampur  10:50 10:49-10:51 10:50-1m--117.614154mNERSH 29A, Uttar Pradesh
6KDJKhudaganj  11:06-11:07-1m--121.480149mNERState Highway 29A, Uttar Pradesh
7MLKPMalikpur  11:14-11:15-1m--130.7657mNERMalancha-Mallickpur Raod, Uttar Pradesh
8GHJGursahaiGanjX  11:21-11:22-1m--137.243146mNERGursahaiganj, Uttar Pradesh
9KHDPKhudlapur  11:30-11:31-1m--142.847147mNERNational Highway 91, Uttar Pradesh
10JDAJasoda  11:36-11:37-1m--146.828144mNERNational Highway 91, Uttar Pradesh
11JPPJalalpur Panwara  11:44-11:45-1m--150.087140mNERNational Highway 91, Uttar Pradesh
12KJNCKannauj City  11:50-11:51-1m--157.240144mNERKannauj, Uttar Pradesh
13KJNKannauj  11:54-11:56-2m--159.237144mNERKannauj, Uttar Pradesh
14MNMUMani Mau  12:05-12:06-1m--164.845141mNERNational Highway 91, Uttar Pradesh
15GWPGangawapur HaltX  12:12-12:13-1m--169.361141mNERAraul, Uttar Pradesh
16ARLAroul  12:18-12:19-1m--174.348142mNERAraul, Uttar Pradesh
17BKTSBakothikhas  12:25-12:26-1m--179.154136mNERAraul, Uttar Pradesh
18BLUBilhaur  12:32-12:33-1m--184.643134mNERKANPUR-209 202, Uttar Pradesh
19DUODhaursalar  12:41-12:42-1m--190.372137mNERNational Highway 91, Uttar Pradesh
20UTPUtripuraX  12:47-12:48-1m--196.356136mNERNH 91, Uttar Pradesh
21BJRBarrajpur  12:56-12:57-1m--1103.874132mNERShivarajpur, Uttar Pradesh
22CBRChaubepurX  13:07-13:08-1m--1116.224133mNERKANPUR-209 203, Uttar Pradesh
23MDAMandhana Junction (1)  13:20-13:21-1m11121.034132mNERKANPUR-209 217, Uttar Pradesh
24KAPKalianpur (1)  13:33-13:34-1m11127.822133mNERKANPUR-208 017, Uttar Pradesh
25RPORawatpur (1)  13:49 13:48-13:50-1 2m11133.026131mNERKANPUR-208 025, Uttar Pradesh
26CPAKanpur Anwarganj (3)X  14:00-14:10-10m--1137.215130mNERKANPUR-208 003, Uttar Pradesh
27CNBKanpur Central (10)XO  14:20-14:40-20m--1139.725128mNCRKANPUR-208 001, Uttar Pradesh
28CNBIChandari (2)X  14:51-14:52-1m--1144.246125mNCRKanpur Cantt, Uttar Pradesh
29CHKChakeri (2)  15:01-15:02-1m--1151.139126mNCRKANPUR-208 008, Uttar Pradesh
30RXMRooma (2)X  15:09-15:10-1m--1155.657125mNCRKANPUR-208 008, Uttar Pradesh
31SSLSirsaul (1)  15:17-15:18-1m11162.246125mNCRKANPUR-209 402, Uttar Pradesh
32PMPRPrempur  15:26-15:27-1m--1168.453125mNCRNational Highway 2, Uttar Pradesh
33KBNKarbigwan  15:33-15:34-1m--1173.755121mNCRFatehpur, Uttar Pradesh
34AUNGAung  15:41-15:42-1m--1180.139123mNCRNational Highway 2, Uttar Pradesh
35BKOBindki Road  15:51-15:52-1m--1186.053124mNCRFatehpur, Uttar Pradesh
36KSQKanspur GugauliO  16:01-16:02-1m--1194.048124mNCRNational Highway 2, Uttar Pradesh
37MWHMalwan (2)  16:11-16:12-1m--1201.250122mNCRFatehpur, Uttar Pradesh
38KKSKurasti Kalan  16:23-16:24-1m--1210.316119mNCRJoniha Rd, Uttar Pradesh
39FTPFatehpur (3)  16:50-16:55-5m--1217.359120mNCRFatehpur, Uttar Pradesh
40RAMARamva  17:01-17:02-1m--1223.244116mNCRforcing detours between Kanpur and Varanasi, Uttar Pradesh
41FYZFaizullapur  17:09-17:10-1m--1228.355115mNCRFaizullapur, Uttar Pradesh
42RUBRasulabad  17:20-17:21-1m--1237.453118mNCRRasulabad, Uttar Pradesh
43SNIESath Naraini  17:29-17:30-1m--1244.550114mNCRNational Highway 2, Uttar Pradesh
44KGAKhaga (3)O  17:39-17:40-1m--1252.052114mNCRFatehpur, Uttar Pradesh
45KTCEKatoghan  17:48-17:49-1m--1258.961109mNCRNational Highway 2, Uttar Pradesh
46KUWKanwar  17:55-17:56-1m--1264.941110mNCRNational Highway 2, Uttar Pradesh
47ASCEAthsarai  18:04-18:05-1m--1270.448107mNCRAthsarai, Uttar Pradesh
48SROSirathu (2)  18:13-18:14-1m11276.854109mNCRSirathu, Uttar Pradesh
49SJTShujaatpur  18:25-18:26-1m--1286.662107mNCRNational Highway 2, Uttar Pradesh
50BDNPBidanpur  18:32-18:33-1m--1292.930106mNCRBidanpur, Uttar Pradesh
51BREBharwari•X  18:41-18:42-1m--1296.947108mNCRBharwari, Uttar Pradesh
52MNJManoharGanjX  18:52-18:53-1m--1304.850104mNCRNational Highway 2, Uttar Pradesh
53SYWNSaiyid Sarawan  19:02-19:03-1m--1312.239106mNCR212203 ?, Uttar Pradesh
54MREManauri  19:10-19:11-1m--1316.851105mNCRSabderganj-Fatehpur Rd, Uttar Pradesh
55BMUBamhrauliX  19:21-19:22-1m--1325.220102mNCRAllahabad, Uttar Pradesh
56SFGSubedarGanj (3)  19:37-19:38-1m--1330.38100mNCRAllahabad, Uttar Pradesh
57ALDAllahabad Junction (10)  20:20 20:05--21334.0-100mNCRAllahabad 211003, Uttar Pradesh
Scroll to Top
Scroll to Bottom